sensor_id;sensor_type;location;lat;lon;timestamp;pressure;altitude;pressure_sealevel;temperature;humidity
76827;BME280;65788;52.284;20.890;2022-12-29T00:00:17;100156.15;;;19.53;41.21
76827;BME280;65788;52.284;20.890;2022-12-29T00:03:04;100153.38;;;19.53;41.17
76827;BME280;65788;52.284;20.890;2022-12-29T00:05:31;100153.17;;;19.53;41.14
76827;BME280;65788;52.284;20.890;2022-12-29T00:07:58;100154.16;;;19.56;41.04
76827;BME280;65788;52.284;20.890;2022-12-29T00:10:25;100152.75;;;19.52;41.14
76827;BME280;65788;52.284;20.890;2022-12-29T00:12:52;100155.20;;;19.54;41.11
76827;BME280;65788;52.284;20.890;2022-12-29T00:15:37;100154.98;;;19.52;41.12
76827;BME280;65788;52.284;20.890;2022-12-29T00:18:05;100147.25;;;19.52;41.13
76827;BME280;65788;52.284;20.890;2022-12-29T00:20:34;100147.10;;;19.54;41.06
76827;BME280;65788;52.284;20.890;2022-12-29T00:23:20;100141.42;;;19.45;41.27
76827;BME280;65788;52.284;20.890;2022-12-29T00:26:15;100139.20;;;19.42;41.31
76827;BME280;65788;52.284;20.890;2022-12-29T00:29:02;100138.95;;;19.37;41.40
76827;BME280;65788;52.284;20.890;2022-12-29T00:31:48;100144.97;;;19.18;41.70
76827;BME280;65788;52.284;20.890;2022-12-29T00:34:53;100145.57;;;19.18;41.59
76827;BME280;65788;52.284;20.890;2022-12-29T00:37:38;100142.42;;;19.08;41.76
76827;BME280;65788;52.284;20.890;2022-12-29T00:40:26;100144.37;;;19.08;41.67
76827;BME280;65788;52.284;20.890;2022-12-29T00:43:11;100144.27;;;19.00;41.76
76827;BME280;65788;52.284;20.890;2022-12-29T00:45:57;100149.24;;;18.97;41.83
76827;BME280;65788;52.284;20.890;2022-12-29T00:48:24;100155.00;;;18.93;41.85
76827;BME280;65788;52.284;20.890;2022-12-29T00:51:09;100151.17;;;18.91;41.88
76827;BME280;65788;52.284;20.890;2022-12-29T00:53:37;100148.61;;;18.90;41.86
76827;BME280;65788;52.284;20.890;2022-12-29T00:56:04;100143.50;;;18.87;41.89
76827;BME280;65788;52.284;20.890;2022-12-29T00:58:31;100144.27;;;18.86;41.87
76827;BME280;65788;52.284;20.890;2022-12-29T01:01:06;100136.34;;;18.85;41.87
76827;BME280;65788;52.284;20.890;2022-12-29T01:03:35;100133.08;;;18.82;41.92
76827;BME280;65788;52.284;20.890;2022-12-29T01:06:05;100131.60;;;18.82;41.91
76827;BME280;65788;52.284;20.890;2022-12-29T01:08:33;100122.88;;;18.79;41.97
76827;BME280;65788;52.284;20.890;2022-12-29T01:11:00;100114.00;;;18.78;41.94
76827;BME280;65788;52.284;20.890;2022-12-29T01:13:28;100116.19;;;18.76;41.97
76827;BME280;65788;52.284;20.890;2022-12-29T01:15:56;100110.96;;;18.74;42.02
76827;BME280;65788;52.284;20.890;2022-12-29T01:18:23;100111.27;;;18.73;42.01
76827;BME280;65788;52.284;20.890;2022-12-29T01:20:53;100113.32;;;18.73;42.00
76827;BME280;65788;52.284;20.890;2022-12-29T01:23:27;100112.05;;;18.73;41.97
76827;BME280;65788;52.284;20.890;2022-12-29T01:25:54;100110.13;;;18.72;41.96
76827;BME280;65788;52.284;20.890;2022-12-29T01:28:22;100107.41;;;18.70;41.98
76827;BME280;65788;52.284;20.890;2022-12-29T01:30:49;100103.39;;;18.67;41.99
76827;BME280;65788;52.284;20.890;2022-12-29T01:33:16;100099.77;;;18.67;41.97
76827;BME280;65788;52.284;20.890;2022-12-29T01:35:43;100096.79;;;18.66;41.95
76827;BME280;65788;52.284;20.890;2022-12-29T01:38:10;100095.98;;;18.65;41.97
76827;BME280;65788;52.284;20.890;2022-12-29T01:40:43;100091.17;;;18.64;41.97
76827;BME280;65788;52.284;20.890;2022-12-29T01:43:12;100086.02;;;18.62;42.00
76827;BME280;65788;52.284;20.890;2022-12-29T01:45:45;100082.09;;;18.63;41.97
76827;BME280;65788;52.284;20.890;2022-12-29T01:48:15;100078.70;;;18.61;42.01
76827;BME280;65788;52.284;20.890;2022-12-29T01:50:46;100077.79;;;18.63;41.93
76827;BME280;65788;52.284;20.890;2022-12-29T01:53:19;100079.30;;;18.60;41.99
76827;BME280;65788;52.284;20.890;2022-12-29T01:55:51;100082.59;;;18.58;42.02
76827;BME280;65788;52.284;20.890;2022-12-29T01:58:22;100074.54;;;18.59;42.02
76827;BME280;65788;52.284;20.890;2022-12-29T02:00:51;100070.98;;;18.59;42.01
76827;BME280;65788;52.284;20.890;2022-12-29T02:03:19;100067.73;;;18.57;42.04
76827;BME280;65788;52.284;20.890;2022-12-29T02:06:11;100057.34;;;18.55;42.05
76827;BME280;65788;52.284;20.890;2022-12-29T02:08:40;100068.86;;;18.53;42.09
76827;BME280;65788;52.284;20.890;2022-12-29T02:11:07;100064.57;;;18.52;42.07
76827;BME280;65788;52.284;20.890;2022-12-29T02:13:35;100073.68;;;18.52;42.08
76827;BME280;65788;52.284;20.890;2022-12-29T02:22:18;100083.35;;;18.49;42.07
76827;BME280;65788;52.284;20.890;2022-12-29T02:25:08;100076.19;;;18.49;42.05
76827;BME280;65788;52.284;20.890;2022-12-29T02:28:15;100071.84;;;18.48;42.05
76827;BME280;65788;52.284;20.890;2022-12-29T02:36:12;100074.17;;;18.45;42.10
76827;BME280;65788;52.284;20.890;2022-12-29T02:42:07;100079.22;;;18.43;42.14
76827;BME280;65788;52.284;20.890;2022-12-29T02:45:02;100081.15;;;18.41;42.17
76827;BME280;65788;52.284;20.890;2022-12-29T02:47:51;100083.07;;;18.41;42.16
76827;BME280;65788;52.284;20.890;2022-12-29T02:53:21;100082.61;;;18.39;42.19
76827;BME280;65788;52.284;20.890;2022-12-29T02:56:09;100087.29;;;18.39;42.15
76827;BME280;65788;52.284;20.890;2022-12-29T02:58:36;100086.79;;;18.38;42.16
76827;BME280;65788;52.284;20.890;2022-12-29T03:07:08;100082.47;;;18.35;42.18
76827;BME280;65788;52.284;20.890;2022-12-29T03:09:50;100084.58;;;18.33;42.24
76827;BME280;65788;52.284;20.890;2022-12-29T03:12:29;100083.45;;;18.34;42.22
76827;BME280;65788;52.284;20.890;2022-12-29T03:15:25;100080.09;;;18.33;42.25
76827;BME280;65788;52.284;20.890;2022-12-29T03:18:56;100068.11;;;18.34;42.23
76827;BME280;65788;52.284;20.890;2022-12-29T03:21:28;100054.50;;;18.31;42.30
76827;BME280;65788;52.284;20.890;2022-12-29T03:24:24;100036.98;;;18.30;42.34
76827;BME280;65788;52.284;20.890;2022-12-29T03:26:55;100030.70;;;18.31;42.31
76827;BME280;65788;52.284;20.890;2022-12-29T03:29:24;100027.48;;;18.31;42.31
76827;BME280;65788;52.284;20.890;2022-12-29T03:31:53;100012.36;;;18.29;42.37
76827;BME280;65788;52.284;20.890;2022-12-29T03:34:24;100010.94;;;18.30;42.36
76827;BME280;65788;52.284;20.890;2022-12-29T03:36:58;100003.11;;;18.30;42.35
76827;BME280;65788;52.284;20.890;2022-12-29T03:39:28;99988.48;;;18.29;42.38
76827;BME280;65788;52.284;20.890;2022-12-29T03:42:01;99973.46;;;18.29;42.39
76827;BME280;65788;52.284;20.890;2022-12-29T03:44:38;99974.20;;;18.27;42.41
76827;BME280;65788;52.284;20.890;2022-12-29T03:47:07;100014.80;;;18.28;42.41
76827;BME280;65788;52.284;20.890;2022-12-29T03:49:34;100021.39;;;18.29;42.36
76827;BME280;65788;52.284;20.890;2022-12-29T03:52:02;100021.48;;;18.29;42.36
76827;BME280;65788;52.284;20.890;2022-12-29T03:54:29;100014.95;;;18.25;42.42
76827;BME280;65788;52.284;20.890;2022-12-29T03:56:57;100012.65;;;18.25;42.44
76827;BME280;65788;52.284;20.890;2022-12-29T03:59:24;100008.09;;;18.24;42.46
76827;BME280;65788;52.284;20.890;2022-12-29T04:01:50;100012.64;;;18.26;42.42
76827;BME280;65788;52.284;20.890;2022-12-29T04:04:17;100017.86;;;18.24;42.47
76827;BME280;65788;52.284;20.890;2022-12-29T04:06:44;100000.33;;;18.24;42.49
76827;BME280;65788;52.284;20.890;2022-12-29T04:09:12;100003.70;;;18.25;42.46
76827;BME280;65788;52.284;20.890;2022-12-29T04:11:39;99992.34;;;18.23;42.48
76827;BME280;65788;52.284;20.890;2022-12-29T04:14:06;99990.64;;;18.22;42.51
76827;BME280;65788;52.284;20.890;2022-12-29T04:16:33;99994.69;;;18.22;42.51
76827;BME280;65788;52.284;20.890;2022-12-29T04:19:02;99995.84;;;18.22;42.54
76827;BME280;65788;52.284;20.890;2022-12-29T04:21:29;100001.42;;;18.22;42.51
76827;BME280;65788;52.284;20.890;2022-12-29T04:23:56;100003.25;;;18.22;42.50
76827;BME280;65788;52.284;20.890;2022-12-29T04:26:23;100005.16;;;18.19;42.55
76827;BME280;65788;52.284;20.890;2022-12-29T04:28:50;99992.24;;;18.19;42.54
76827;BME280;65788;52.284;20.890;2022-12-29T04:31:17;99981.85;;;18.19;42.54
76827;BME280;65788;52.284;20.890;2022-12-29T04:33:44;99970.09;;;18.19;42.54
76827;BME280;65788;52.284;20.890;2022-12-29T04:36:12;99958.15;;;18.18;42.54
76827;BME280;65788;52.284;20.890;2022-12-29T04:38:39;99977.45;;;18.18;42.55
76827;BME280;65788;52.284;20.890;2022-12-29T04:41:06;99982.67;;;18.16;42.57
76827;BME280;65788;52.284;20.890;2022-12-29T04:43:33;99976.70;;;18.17;42.56
76827;BME280;65788;52.284;20.890;2022-12-29T04:46:00;99978.27;;;18.17;42.54
76827;BME280;65788;52.284;20.890;2022-12-29T04:48:27;99973.89;;;18.17;42.54
76827;BME280;65788;52.284;20.890;2022-12-29T04:50:54;99980.40;;;18.17;42.55
76827;BME280;65788;52.284;20.890;2022-12-29T04:53:21;99981.52;;;18.18;42.51
76827;BME280;65788;52.284;20.890;2022-12-29T04:55:51;99962.37;;;18.25;42.37
76827;BME280;65788;52.284;20.890;2022-12-29T04:58:19;99956.86;;;18.31;42.25
76827;BME280;65788;52.284;20.890;2022-12-29T05:00:46;99952.85;;;18.37;42.16
76827;BME280;65788;52.284;20.890;2022-12-29T05:03:14;99951.27;;;18.47;41.98
76827;BME280;65788;52.284;20.890;2022-12-29T05:05:41;99951.55;;;18.57;41.81
76827;BME280;65788;52.284;20.890;2022-12-29T05:08:08;99953.38;;;18.67;41.62
76827;BME280;65788;52.284;20.890;2022-12-29T05:10:35;99955.08;;;18.76;41.48
76827;BME280;65788;52.284;20.890;2022-12-29T05:13:02;99954.67;;;18.82;41.38
76827;BME280;65788;52.284;20.890;2022-12-29T05:15:29;99948.54;;;18.85;41.40
76827;BME280;65788;52.284;20.890;2022-12-29T05:17:56;99950.07;;;18.88;41.37
76827;BME280;65788;52.284;20.890;2022-12-29T05:20:23;99948.59;;;18.92;41.35
76827;BME280;65788;52.284;20.890;2022-12-29T05:22:51;99942.16;;;18.95;41.34
76827;BME280;65788;52.284;20.890;2022-12-29T05:25:18;99935.53;;;18.96;41.33
76827;BME280;65788;52.284;20.890;2022-12-29T05:27:46;99927.20;;;18.98;41.31
76827;BME280;65788;52.284;20.890;2022-12-29T05:30:12;99931.84;;;19.05;41.18
76827;BME280;65788;52.284;20.890;2022-12-29T05:32:39;99929.63;;;19.12;41.17
76827;BME280;65788;52.284;20.890;2022-12-29T05:35:07;99919.91;;;19.17;41.17
76827;BME280;65788;52.284;20.890;2022-12-29T05:37:35;99919.22;;;19.22;41.14
76827;BME280;65788;52.284;20.890;2022-12-29T05:40:03;99920.16;;;19.25;41.11
76827;BME280;65788;52.284;20.890;2022-12-29T05:42:30;99920.55;;;19.31;41.04
76827;BME280;65788;52.284;20.890;2022-12-29T05:44:59;99918.52;;;19.36;41.01
76827;BME280;65788;52.284;20.890;2022-12-29T05:47:26;99914.07;;;19.40;41.00
76827;BME280;65788;52.284;20.890;2022-12-29T05:49:53;99911.30;;;19.43;41.01
76827;BME280;65788;52.284;20.890;2022-12-29T05:52:20;99912.55;;;19.45;41.02
76827;BME280;65788;52.284;20.890;2022-12-29T05:54:47;99912.08;;;19.48;40.97
76827;BME280;65788;52.284;20.890;2022-12-29T05:57:14;99911.55;;;19.51;40.98
76827;BME280;65788;52.284;20.890;2022-12-29T05:59:42;99914.95;;;19.54;40.99
76827;BME280;65788;52.284;20.890;2022-12-29T06:02:09;99911.08;;;19.56;41.05
76827;BME280;65788;52.284;20.890;2022-12-29T06:04:36;99910.70;;;19.58;41.05
76827;BME280;65788;52.284;20.890;2022-12-29T06:07:03;99910.75;;;19.61;41.08
76827;BME280;65788;52.284;20.890;2022-12-29T06:09:31;99912.34;;;19.64;41.06
76827;BME280;65788;52.284;20.890;2022-12-29T06:11:58;99910.12;;;19.66;41.05
76827;BME280;65788;52.284;20.890;2022-12-29T06:14:25;99917.38;;;19.71;40.97
76827;BME280;65788;52.284;20.890;2022-12-29T06:16:52;99919.06;;;19.74;40.93
76827;BME280;65788;52.284;20.890;2022-12-29T06:19:19;99914.84;;;19.76;40.92
76827;BME280;65788;52.284;20.890;2022-12-29T06:21:46;99912.42;;;19.78;40.92
76827;BME280;65788;52.284;20.890;2022-12-29T06:24:14;99909.88;;;19.81;40.87
76827;BME280;65788;52.284;20.890;2022-12-29T06:26:42;99907.84;;;19.83;40.83
76827;BME280;65788;52.284;20.890;2022-12-29T06:29:09;99907.33;;;19.83;40.86
76827;BME280;65788;52.284;20.890;2022-12-29T06:31:36;99913.40;;;19.86;40.83
76827;BME280;65788;52.284;20.890;2022-12-29T06:34:03;99922.00;;;19.90;40.76
76827;BME280;65788;52.284;20.890;2022-12-29T06:36:30;99919.77;;;19.91;40.73
76827;BME280;65788;52.284;20.890;2022-12-29T06:38:57;99922.97;;;19.91;40.77
76827;BME280;65788;52.284;20.890;2022-12-29T06:41:24;99928.62;;;19.93;40.75
76827;BME280;65788;52.284;20.890;2022-12-29T06:43:51;99929.29;;;19.94;40.72
76827;BME280;65788;52.284;20.890;2022-12-29T06:46:18;99934.21;;;19.96;40.68
76827;BME280;65788;52.284;20.890;2022-12-29T06:48:46;99930.52;;;19.97;40.66
76827;BME280;65788;52.284;20.890;2022-12-29T06:51:13;99929.31;;;19.98;40.66
76827;BME280;65788;52.284;20.890;2022-12-29T06:53:40;99935.21;;;19.98;40.66
76827;BME280;65788;52.284;20.890;2022-12-29T06:56:07;99930.70;;;20.00;40.63
76827;BME280;65788;52.284;20.890;2022-12-29T06:58:35;99924.74;;;20.01;40.61
76827;BME280;65788;52.284;20.890;2022-12-29T07:01:02;99922.69;;;20.01;40.61
76827;BME280;65788;52.284;20.890;2022-12-29T07:03:29;99923.52;;;20.04;40.54
76827;BME280;65788;52.284;20.890;2022-12-29T07:05:56;99917.64;;;20.04;40.54
76827;BME280;65788;52.284;20.890;2022-12-29T07:08:24;99916.25;;;20.05;40.50
76827;BME280;65788;52.284;20.890;2022-12-29T07:10:51;99912.19;;;20.08;40.47
76827;BME280;65788;52.284;20.890;2022-12-29T07:13:19;99909.48;;;20.06;40.49
76827;BME280;65788;52.284;20.890;2022-12-29T07:15:46;99906.20;;;20.09;40.46
76827;BME280;65788;52.284;20.890;2022-12-29T07:18:13;99907.48;;;20.09;40.45
76827;BME280;65788;52.284;20.890;2022-12-29T07:20:39;99901.89;;;20.11;40.40
76827;BME280;65788;52.284;20.890;2022-12-29T07:23:07;99898.48;;;20.13;40.35
76827;BME280;65788;52.284;20.890;2022-12-29T07:25:34;99893.50;;;20.14;40.33
76827;BME280;65788;52.284;20.890;2022-12-29T07:28:03;99896.60;;;20.15;40.28
76827;BME280;65788;52.284;20.890;2022-12-29T07:30:30;99898.48;;;20.18;40.25
76827;BME280;65788;52.284;20.890;2022-12-29T07:32:57;99899.80;;;20.18;40.23
76827;BME280;65788;52.284;20.890;2022-12-29T07:35:27;99903.94;;;20.18;40.23
76827;BME280;65788;52.284;20.890;2022-12-29T07:37:53;99903.34;;;20.18;40.19
76827;BME280;65788;52.284;20.890;2022-12-29T07:40:21;99903.65;;;20.20;40.17
76827;BME280;65788;52.284;20.890;2022-12-29T07:42:48;99904.79;;;20.21;40.13
76827;BME280;65788;52.284;20.890;2022-12-29T07:45:15;99901.98;;;20.21;40.11
76827;BME280;65788;52.284;20.890;2022-12-29T07:47:42;99897.81;;;20.22;40.05
76827;BME280;65788;52.284;20.890;2022-12-29T07:50:09;99901.90;;;20.23;40.02
76827;BME280;65788;52.284;20.890;2022-12-29T07:52:36;99899.58;;;20.21;40.04
76827;BME280;65788;52.284;20.890;2022-12-29T07:55:04;99902.25;;;20.22;40.01
76827;BME280;65788;52.284;20.890;2022-12-29T07:57:31;99899.64;;;20.24;39.95
76827;BME280;65788;52.284;20.890;2022-12-29T07:59:58;99893.20;;;20.24;39.95
76827;BME280;65788;52.284;20.890;2022-12-29T08:02:25;99890.08;;;20.24;39.98
76827;BME280;65788;52.284;20.890;2022-12-29T08:04:53;99884.98;;;20.29;39.92
76827;BME280;65788;52.284;20.890;2022-12-29T08:07:20;99884.52;;;20.31;39.89
76827;BME280;65788;52.284;20.890;2022-12-29T08:09:47;99882.26;;;20.34;39.90
76827;BME280;65788;52.284;20.890;2022-12-29T08:12:15;99877.09;;;20.34;39.91
76827;BME280;65788;52.284;20.890;2022-12-29T08:14:42;99879.51;;;20.37;39.86
76827;BME280;65788;52.284;20.890;2022-12-29T08:17:09;99881.63;;;20.40;39.84
76827;BME280;65788;52.284;20.890;2022-12-29T08:19:37;99877.17;;;20.43;39.81
76827;BME280;65788;52.284;20.890;2022-12-29T08:22:05;99881.14;;;20.44;39.81
76827;BME280;65788;52.284;20.890;2022-12-29T08:24:32;99882.19;;;20.43;39.83
76827;BME280;65788;52.284;20.890;2022-12-29T08:26:59;99888.02;;;20.43;39.82
76827;BME280;65788;52.284;20.890;2022-12-29T08:29:26;99890.70;;;20.45;39.76
76827;BME280;65788;52.284;20.890;2022-12-29T08:31:53;99888.64;;;20.45;39.78
76827;BME280;65788;52.284;20.890;2022-12-29T08:34:21;99887.40;;;20.47;39.74
76827;BME280;65788;52.284;20.890;2022-12-29T08:36:48;99891.10;;;20.46;39.75
76827;BME280;65788;52.284;20.890;2022-12-29T08:39:15;99899.91;;;20.43;39.81
76827;BME280;65788;52.284;20.890;2022-12-29T08:41:42;99901.99;;;20.41;39.82
76827;BME280;65788;52.284;20.890;2022-12-29T08:44:10;99906.41;;;20.38;39.88
76827;BME280;65788;52.284;20.890;2022-12-29T08:46:36;99909.89;;;20.32;40.03
76827;BME280;65788;52.284;20.890;2022-12-29T08:49:04;99905.93;;;20.29;40.29
76827;BME280;65788;52.284;20.890;2022-12-29T08:51:30;99901.35;;;20.28;40.66
76827;BME280;65788;52.284;20.890;2022-12-29T08:54:00;99904.29;;;20.33;43.09
76827;BME280;65788;52.284;20.890;2022-12-29T08:56:27;99904.98;;;20.38;42.77
76827;BME280;65788;52.284;20.890;2022-12-29T08:58:54;99904.08;;;20.42;41.99
76827;BME280;65788;52.284;20.890;2022-12-29T09:01:23;99901.34;;;20.46;41.12
76827;BME280;65788;52.284;20.890;2022-12-29T09:03:50;99902.36;;;20.48;40.86
76827;BME280;65788;52.284;20.890;2022-12-29T09:06:17;99900.45;;;20.49;40.86
76827;BME280;65788;52.284;20.890;2022-12-29T09:08:44;99898.52;;;20.47;40.84
76827;BME280;65788;52.284;20.890;2022-12-29T09:11:21;99891.14;;;20.50;40.58
76827;BME280;65788;52.284;20.890;2022-12-29T09:13:48;99892.34;;;20.55;40.35
76827;BME280;65788;52.284;20.890;2022-12-29T09:16:17;99897.54;;;20.58;40.21
76827;BME280;65788;52.284;20.890;2022-12-29T09:18:44;99890.23;;;20.56;40.36
76827;BME280;65788;52.284;20.890;2022-12-29T09:21:12;99888.92;;;20.57;40.13
76827;BME280;65788;52.284;20.890;2022-12-29T09:23:39;99890.20;;;20.55;40.10
76827;BME280;65788;52.284;20.890;2022-12-29T09:26:07;99887.44;;;20.56;40.12
76827;BME280;65788;52.284;20.890;2022-12-29T09:28:35;99880.75;;;20.60;39.94
76827;BME280;65788;52.284;20.890;2022-12-29T09:31:02;99884.13;;;20.60;40.05
76827;BME280;65788;52.284;20.890;2022-12-29T09:33:29;99888.85;;;20.61;39.81
76827;BME280;65788;52.284;20.890;2022-12-29T09:35:57;99885.84;;;20.57;39.86
76827;BME280;65788;52.284;20.890;2022-12-29T09:38:26;99878.94;;;20.58;39.88
76827;BME280;65788;52.284;20.890;2022-12-29T09:40:56;99880.80;;;20.62;39.74
76827;BME280;65788;52.284;20.890;2022-12-29T09:46:18;99867.38;;;20.68;39.62
76827;BME280;65788;52.284;20.890;2022-12-29T09:51:56;99862.98;;;20.75;39.59
76827;BME280;65788;52.284;20.890;2022-12-29T09:54:37;99864.85;;;20.79;39.55
76827;BME280;65788;52.284;20.890;2022-12-29T09:57:29;99867.77;;;20.83;39.61
76827;BME280;65788;52.284;20.890;2022-12-29T10:00:05;99859.80;;;20.93;39.46
76827;BME280;65788;52.284;20.890;2022-12-29T10:02:42;99858.52;;;20.95;39.44
76827;BME280;65788;52.284;20.890;2022-12-29T10:06:17;99854.59;;;20.97;39.32
76827;BME280;65788;52.284;20.890;2022-12-29T10:08:44;99851.66;;;21.00;39.31
76827;BME280;65788;52.284;20.890;2022-12-29T10:25:42;99831.04;;;20.96;39.32
76827;BME280;65788;52.284;20.890;2022-12-29T10:28:24;99840.61;;;20.96;39.30
76827;BME280;65788;52.284;20.890;2022-12-29T10:30:59;99834.99;;;20.95;39.28
76827;BME280;65788;52.284;20.890;2022-12-29T10:33:36;99837.30;;;20.99;39.18
76827;BME280;65788;52.284;20.890;2022-12-29T10:36:17;99829.23;;;20.96;39.26
76827;BME280;65788;52.284;20.890;2022-12-29T10:38:51;99828.54;;;20.93;39.41
76827;BME280;65788;52.284;20.890;2022-12-29T10:41:38;99825.77;;;20.94;39.44
76827;BME280;65788;52.284;20.890;2022-12-29T10:44:13;99821.86;;;20.93;39.43
76827;BME280;65788;52.284;20.890;2022-12-29T10:46:41;99815.59;;;20.94;39.35
76827;BME280;65788;52.284;20.890;2022-12-29T10:49:16;99815.09;;;20.91;39.36
76827;BME280;65788;52.284;20.890;2022-12-29T10:51:46;99820.27;;;20.94;40.76
76827;BME280;65788;52.284;20.890;2022-12-29T10:54:23;99821.29;;;21.14;40.42
76827;BME280;65788;52.284;20.890;2022-12-29T10:57:03;99819.56;;;21.09;40.23
76827;BME280;65788;52.284;20.890;2022-12-29T10:59:35;99817.00;;;21.23;40.56
76827;BME280;65788;52.284;20.890;2022-12-29T11:07:06;99814.69;;;20.79;39.50
76827;BME280;65788;52.284;20.890;2022-12-29T11:09:36;99815.29;;;20.84;39.63
76827;BME280;65788;52.284;20.890;2022-12-29T11:15:16;99804.99;;;20.95;39.27
76827;BME280;65788;52.284;20.890;2022-12-29T11:17:49;99806.07;;;20.95;39.13
76827;BME280;65788;52.284;20.890;2022-12-29T11:20:37;99806.40;;;20.87;39.25
76827;BME280;65788;52.284;20.890;2022-12-29T11:26:22;99798.88;;;20.81;39.20
76827;BME280;65788;52.284;20.890;2022-12-29T11:32:12;99808.10;;;20.84;39.02
76827;BME280;65788;52.284;20.890;2022-12-29T11:34:39;99810.02;;;20.80;39.16
76827;BME280;65788;52.284;20.890;2022-12-29T11:37:28;99814.49;;;20.81;39.08
76827;BME280;65788;52.284;20.890;2022-12-29T11:42:40;99810.10;;;20.89;38.73
76827;BME280;65788;52.284;20.890;2022-12-29T11:45:33;99813.34;;;20.89;38.59
76827;BME280;65788;52.284;20.890;2022-12-29T11:48:34;99809.63;;;20.85;38.78
76827;BME280;65788;52.284;20.890;2022-12-29T11:51:05;99809.61;;;20.84;38.67
76827;BME280;65788;52.284;20.890;2022-12-29T11:56:09;99812.83;;;20.77;38.81
76827;BME280;65788;52.284;20.890;2022-12-29T11:58:38;99804.42;;;20.78;38.86
76827;BME280;65788;52.284;20.890;2022-12-29T12:01:17;99802.12;;;20.77;38.80
76827;BME280;65788;52.284;20.890;2022-12-29T12:04:11;99801.88;;;20.76;38.74
76827;BME280;65788;52.284;20.890;2022-12-29T12:06:49;99801.93;;;20.76;38.71
76827;BME280;65788;52.284;20.890;2022-12-29T12:09:57;99798.35;;;20.77;38.65
76827;BME280;65788;52.284;20.890;2022-12-29T12:12:31;99795.36;;;20.75;38.68
76827;BME280;65788;52.284;20.890;2022-12-29T12:15:01;99791.52;;;20.67;38.73
76827;BME280;65788;52.284;20.890;2022-12-29T12:17:54;99795.81;;;20.58;38.94
76827;BME280;65788;52.284;20.890;2022-12-29T12:20:31;99797.23;;;20.55;39.09
76827;BME280;65788;52.284;20.890;2022-12-29T12:23:06;99795.43;;;20.56;38.91
76827;BME280;65788;52.284;20.890;2022-12-29T12:25:45;99791.75;;;20.58;38.97
76827;BME280;65788;52.284;20.890;2022-12-29T12:28:33;99787.96;;;20.61;39.35
76827;BME280;65788;52.284;20.890;2022-12-29T12:31:11;99787.70;;;20.58;40.16
76827;BME280;65788;52.284;20.890;2022-12-29T12:33:46;99782.89;;;20.52;39.90
76827;BME280;65788;52.284;20.890;2022-12-29T12:36:26;99788.95;;;20.44;39.82
76827;BME280;65788;52.284;20.890;2022-12-29T12:39:12;99775.91;;;20.50;40.10
76827;BME280;65788;52.284;20.890;2022-12-29T12:52:58;99767.34;;;20.87;39.77
76827;BME280;65788;52.284;20.890;2022-12-29T12:58:20;99766.52;;;20.93;39.82
76827;BME280;65788;52.284;20.890;2022-12-29T13:01:14;99766.71;;;20.92;39.80
76827;BME280;65788;52.284;20.890;2022-12-29T13:06:40;99774.38;;;20.94;39.78
76827;BME280;65788;52.284;20.890;2022-12-29T13:09:40;99769.73;;;20.95;39.81
76827;BME280;65788;52.284;20.890;2022-12-29T13:12:41;99766.48;;;21.03;39.57
76827;BME280;65788;52.284;20.890;2022-12-29T13:15:14;99763.31;;;21.15;39.78
76827;BME280;65788;52.284;20.890;2022-12-29T13:18:03;99765.42;;;21.00;39.76
76827;BME280;65788;52.284;20.890;2022-12-29T13:21:07;99765.59;;;21.02;39.90
76827;BME280;65788;52.284;20.890;2022-12-29T13:23:48;99768.61;;;21.03;40.11
76827;BME280;65788;52.284;20.890;2022-12-29T13:26:30;99772.28;;;21.03;40.20
76827;BME280;65788;52.284;20.890;2022-12-29T13:29:23;99770.30;;;21.04;39.96
76827;BME280;65788;52.284;20.890;2022-12-29T13:32:19;99774.34;;;21.03;40.00
76827;BME280;65788;52.284;20.890;2022-12-29T13:37:50;99774.71;;;21.03;39.86
76827;BME280;65788;52.284;20.890;2022-12-29T13:40:23;99769.42;;;21.08;39.83
76827;BME280;65788;52.284;20.890;2022-12-29T13:42:55;99770.40;;;21.07;39.77
76827;BME280;65788;52.284;20.890;2022-12-29T13:45:24;99776.91;;;20.98;40.08
76827;BME280;65788;52.284;20.890;2022-12-29T13:48:07;99777.31;;;20.99;39.90
76827;BME280;65788;52.284;20.890;2022-12-29T13:50:38;99781.23;;;20.92;40.02
76827;BME280;65788;52.284;20.890;2022-12-29T13:56:08;99789.08;;;20.81;40.24
76827;BME280;65788;52.284;20.890;2022-12-29T13:58:47;99791.50;;;20.73;40.15
76827;BME280;65788;52.284;20.890;2022-12-29T14:01:38;99794.41;;;20.75;40.06
76827;BME280;65788;52.284;20.890;2022-12-29T14:04:22;99791.02;;;20.78;40.20
76827;BME280;65788;52.284;20.890;2022-12-29T14:07:02;99794.05;;;20.74;40.22
76827;BME280;65788;52.284;20.890;2022-12-29T14:09:50;99797.27;;;20.76;40.15
76827;BME280;65788;52.284;20.890;2022-12-29T14:12:43;99793.52;;;20.75;40.09
76827;BME280;65788;52.284;20.890;2022-12-29T14:17:36;99790.30;;;20.92;39.45
76827;BME280;65788;52.284;20.890;2022-12-29T14:20:15;99786.52;;;20.91;39.33
76827;BME280;65788;52.284;20.890;2022-12-29T14:23:15;99784.23;;;20.87;39.38
76827;BME280;65788;52.284;20.890;2022-12-29T14:31:03;99769.59;;;20.71;39.73
76827;BME280;65788;52.284;20.890;2022-12-29T14:33:33;99771.38;;;20.65;39.82
76827;BME280;65788;52.284;20.890;2022-12-29T14:36:20;99776.20;;;20.59;39.92
76827;BME280;65788;52.284;20.890;2022-12-29T14:38:52;99777.48;;;20.53;40.03
76827;BME280;65788;52.284;20.890;2022-12-29T14:41:40;99775.31;;;20.48;40.10
76827;BME280;65788;52.284;20.890;2022-12-29T14:44:18;99780.13;;;20.42;40.18
76827;BME280;65788;52.284;20.890;2022-12-29T14:49:40;99787.61;;;20.22;40.52
76827;BME280;65788;52.284;20.890;2022-12-29T14:52:21;99792.61;;;20.16;40.61
76827;BME280;65788;52.284;20.890;2022-12-29T14:57:51;99792.58;;;19.94;40.99